createdAt,value
2022-09-09T00:02:17.643Z,7.91
2022-09-09T00:04:57.796Z,7.79
2022-09-09T00:07:45.112Z,7.93
2022-09-09T00:10:45.644Z,7.94
2022-09-09T00:13:48.782Z,7.92
2022-09-09T00:16:33.174Z,7.88
2022-09-09T00:19:15.794Z,7.90
2022-09-09T00:22:09.268Z,7.74
2022-09-09T00:25:00.079Z,7.79
2022-09-09T00:27:57.347Z,7.79
2022-09-09T00:30:36.617Z,7.74
2022-09-09T00:33:17.600Z,7.63
2022-09-09T00:35:57.767Z,7.71
2022-09-09T00:38:37.343Z,7.83
2022-09-09T00:41:31.570Z,7.91
2022-09-09T00:44:19.768Z,7.66
2022-09-09T00:47:10.599Z,7.87
2022-09-09T00:50:13.567Z,7.87
2022-09-09T00:52:58.652Z,7.85
2022-09-09T00:55:45.421Z,7.80
2022-09-09T00:58:18.838Z,7.71
2022-09-09T01:00:55.172Z,7.89
2022-09-09T01:03:35.840Z,7.76
2022-09-09T01:06:18.025Z,7.61
2022-09-09T01:09:34.772Z,7.84
2022-09-09T01:12:28.115Z,7.76
2022-09-09T01:15:18.608Z,7.73
2022-09-09T01:18:03.415Z,7.83
2022-09-09T01:20:54.999Z,7.57
2022-09-09T01:23:33.474Z,7.77
2022-09-09T01:26:52.185Z,7.51
2022-09-09T01:29:33.474Z,7.60
2022-09-09T01:32:45.716Z,7.76
2022-09-09T01:36:02.745Z,7.77
2022-09-09T01:38:39.154Z,7.78
2022-09-09T01:41:11.303Z,7.72
2022-09-09T01:43:53.906Z,7.47
2022-09-09T01:46:26.350Z,7.60
2022-09-09T01:49:01.818Z,7.69
2022-09-09T01:51:30.292Z,7.49
2022-09-09T01:54:03.990Z,7.44
2022-09-09T01:57:12.850Z,7.53
2022-09-09T02:00:12.991Z,7.59
2022-09-09T02:03:29.469Z,7.66
2022-09-09T02:06:23.793Z,7.62
2022-09-09T02:08:57.649Z,7.65
2022-09-09T02:11:28.675Z,7.64
2022-09-09T02:14:17.764Z,7.53
2022-09-09T02:17:15.868Z,7.46
2022-09-09T02:20:10.218Z,7.41
2022-09-09T02:22:48.811Z,7.41
2022-09-09T02:25:22.955Z,7.57
2022-09-09T02:29:23.079Z,7.59
2022-09-09T02:31:54.772Z,7.56
2022-09-09T02:34:31.999Z,7.39
2022-09-09T02:37:13.553Z,7.46
2022-09-09T02:40:49.312Z,7.50
2022-09-09T02:43:26.186Z,7.34
2022-09-09T02:46:47.152Z,7.41
2022-09-09T02:49:30.177Z,7.42
2022-09-09T02:52:11.099Z,7.44
2022-09-09T02:54:41.359Z,7.46
2022-09-09T02:57:37.709Z,7.43
2022-09-09T03:00:09.979Z,7.17
2022-09-09T03:02:47.709Z,7.05
2022-09-09T03:05:36.297Z,7.09
2022-09-09T03:08:06.840Z,7.05
2022-09-09T03:10:35.911Z,6.95
2022-09-09T03:13:07.984Z,6.96
2022-09-09T03:15:41.961Z,6.85
2022-09-09T03:18:21.106Z,6.77
2022-09-09T03:20:55.280Z,6.73
2022-09-09T03:23:26.727Z,6.70
2022-09-09T03:25:58.474Z,6.66
2022-09-09T03:29:01.598Z,6.75
2022-09-09T03:31:31.818Z,6.67
2022-09-09T03:34:00.274Z,6.65
2022-09-09T03:36:33.266Z,6.67
2022-09-09T03:39:05.460Z,6.51
2022-09-09T03:41:43.232Z,6.66
2022-09-09T03:44:10.968Z,6.75
2022-09-09T03:46:44.559Z,6.65
2022-09-09T03:49:12.178Z,6.77
2022-09-09T03:51:48.166Z,6.68
2022-09-09T03:54:18.384Z,6.76
2022-09-09T03:56:52.122Z,6.92
2022-09-09T03:59:27.059Z,7.00
2022-09-09T04:02:00.423Z,6.75
2022-09-09T04:04:34.065Z,6.94
2022-09-09T04:07:04.462Z,7.03
2022-09-09T04:09:57.225Z,7.11
2022-09-09T04:12:28.341Z,7.17
2022-09-09T04:14:57.786Z,7.22
2022-09-09T04:17:26.580Z,7.28
2022-09-09T04:19:58.395Z,7.35
2022-09-09T04:22:31.217Z,7.36
2022-09-09T04:25:02.425Z,7.35
2022-09-09T04:27:46.299Z,7.58
2022-09-09T04:30:44.428Z,7.59
2022-09-09T04:33:25.542Z,7.49
2022-09-09T04:35:55.155Z,7.60
2022-09-09T04:38:25.606Z,7.79
2022-09-09T04:41:01.825Z,7.89
2022-09-09T04:43:29.303Z,7.89
2022-09-09T04:46:05.574Z,8.09
2022-09-09T04:48:48.577Z,8.00
2022-09-09T04:52:08.840Z,8.03
2022-09-09T04:56:23.042Z,8.50
2022-09-09T04:58:43.399Z,9.02
2022-09-09T05:01:20.559Z,10.14
2022-09-09T05:03:50.251Z,11.56
2022-09-09T05:06:49.414Z,12.81
2022-09-09T05:09:15.417Z,13.87
2022-09-09T05:11:48.198Z,14.78
2022-09-09T05:14:39.940Z,15.37
2022-09-09T05:17:15.493Z,16.23
2022-09-09T05:19:58.176Z,16.81
2022-09-09T05:22:35.078Z,17.41
2022-09-09T05:25:29.260Z,17.69
2022-09-09T05:28:02.414Z,17.98
2022-09-09T05:30:33.618Z,18.32
2022-09-09T05:33:15.074Z,18.46
2022-09-09T05:35:44.974Z,18.60
2022-09-09T05:38:19.746Z,19.06
2022-09-09T05:40:52.607Z,19.25
2022-09-09T05:43:21.831Z,19.42
2022-09-09T05:45:51.840Z,19.64
2022-09-09T05:48:20.594Z,19.75
2022-09-09T05:50:55.579Z,19.90
2022-09-09T05:53:25.763Z,20.18
2022-09-09T05:56:32.030Z,20.01
2022-09-09T05:59:22.429Z,20.36
2022-09-09T06:02:03.517Z,20.66
2022-09-09T06:04:40.297Z,20.40
2022-09-09T06:07:20.219Z,20.43
2022-09-09T06:10:00.042Z,20.49
2022-09-09T06:12:39.202Z,20.54
2022-09-09T06:15:10.868Z,20.60
2022-09-09T06:17:38.574Z,21.04
2022-09-09T06:20:15.047Z,21.30
2022-09-09T06:22:44.380Z,21.67
2022-09-09T06:25:39.966Z,21.99
2022-09-09T06:28:17.250Z,21.88
2022-09-09T06:30:45.823Z,21.79
2022-09-09T06:33:13.386Z,21.69
2022-09-09T06:35:41.267Z,21.26
2022-09-09T06:38:19.492Z,19.58
2022-09-09T06:40:57.817Z,18.16
2022-09-09T06:43:29.652Z,16.89
2022-09-09T06:46:02.517Z,15.60
2022-09-09T06:48:31.366Z,14.78
2022-09-09T06:51:18.972Z,14.31
2022-09-09T06:53:52.019Z,14.16
2022-09-09T06:56:29.720Z,14.24
2022-09-09T06:59:06.325Z,14.12
2022-09-09T07:01:37.014Z,14.04
2022-09-09T07:04:09.120Z,14.40
2022-09-09T07:06:39.968Z,14.53
2022-09-09T07:09:17.943Z,14.94
2022-09-09T07:11:50.923Z,14.64
2022-09-09T07:14:20.881Z,14.30
2022-09-09T07:16:56.462Z,14.07
2022-09-09T07:19:28.597Z,14.14
2022-09-09T07:22:07.721Z,14.97
2022-09-09T07:24:36.408Z,15.85
2022-09-09T07:27:06.933Z,15.80
2022-09-09T07:29:36.083Z,15.59
2022-09-09T07:32:09.477Z,15.45
2022-09-09T07:34:40.918Z,15.20
2022-09-09T07:37:09.207Z,15.19
2022-09-09T07:39:37.343Z,15.15
2022-09-09T07:42:08.110Z,15.18
2022-09-09T07:44:41.045Z,15.51
2022-09-09T07:47:14.761Z,15.26
2022-09-09T07:49:53.429Z,14.82
2022-09-09T07:52:26.319Z,14.49
2022-09-09T07:54:58.267Z,14.16
2022-09-09T07:57:26.130Z,13.91
2022-09-09T07:59:57.578Z,14.04
2022-09-09T08:02:26.816Z,13.80
2022-09-09T08:04:54.330Z,13.69
2022-09-09T08:07:24.595Z,13.94
2022-09-09T08:09:56.862Z,15.04
2022-09-09T08:12:29.225Z,15.43
2022-09-09T08:14:59.837Z,15.29
2022-09-09T08:17:31.550Z,15.61
2022-09-09T08:20:06.335Z,16.10
2022-09-09T08:22:35.561Z,16.03
2022-09-09T08:25:03.594Z,15.70
2022-09-09T08:27:33.530Z,15.33
2022-09-09T08:30:04.577Z,14.95
2022-09-09T08:32:39.890Z,14.96
2022-09-09T08:35:10.139Z,15.35
2022-09-09T08:37:51.411Z,15.31
2022-09-09T08:40:28.215Z,15.70
2022-09-09T08:43:00.246Z,16.54
2022-09-09T08:45:56.691Z,18.16
2022-09-09T08:48:45.196Z,18.66
2022-09-09T08:51:14.553Z,18.38
2022-09-09T08:53:50.856Z,17.60
2022-09-09T08:56:29.784Z,16.87
2022-09-09T08:59:30.090Z,16.02
2022-09-09T09:02:16.887Z,16.41
2022-09-09T09:04:57.722Z,17.41
2022-09-09T09:07:37.480Z,18.86
2022-09-09T09:10:58.141Z,18.31
2022-09-09T09:13:46.632Z,17.33
2022-09-09T09:16:22.308Z,16.60
2022-09-09T09:18:56.400Z,15.81
2022-09-09T09:21:47.465Z,15.33
2022-09-09T09:24:22.259Z,14.98
2022-09-09T09:26:51.643Z,14.70
2022-09-09T09:29:28.328Z,14.43
2022-09-09T09:32:03.743Z,14.46
2022-09-09T09:34:31.071Z,15.81
2022-09-09T09:37:01.265Z,17.32
2022-09-09T09:42:29.638Z,19.37
2022-09-09T09:45:19.378Z,19.97
2022-09-09T09:47:47.015Z,19.64
2022-09-09T09:50:21.607Z,18.58
2022-09-09T09:53:05.266Z,17.60
2022-09-09T09:55:38.266Z,16.65
2022-09-09T09:58:17.947Z,16.56
2022-09-09T10:00:53.366Z,16.16
2022-09-09T10:03:31.878Z,16.16
2022-09-09T10:06:01.792Z,16.46
2022-09-09T10:08:29.554Z,17.56
2022-09-09T10:11:18.280Z,18.39
2022-09-09T10:14:07.901Z,18.44
2022-09-09T10:17:06.069Z,18.35
2022-09-09T10:19:37.304Z,17.89
2022-09-09T10:22:34.398Z,17.61
2022-09-09T10:25:16.505Z,17.03
2022-09-09T10:28:13.047Z,16.40
2022-09-09T10:30:50.811Z,16.22
2022-09-09T10:33:49.949Z,15.70
2022-09-09T10:36:30.674Z,15.60
2022-09-09T10:39:42.167Z,15.50
2022-09-09T10:42:21.086Z,15.11
2022-09-09T10:45:09.990Z,15.24
2022-09-09T10:47:46.153Z,15.29
2022-09-09T10:50:50.378Z,15.22
2022-09-09T10:53:39.221Z,15.08
2022-09-09T10:56:19.979Z,15.14
2022-09-09T10:59:13.702Z,15.57
2022-09-09T11:01:43.979Z,15.65
2022-09-09T11:04:20.311Z,15.70
2022-09-09T11:06:53.608Z,15.22
2022-09-09T11:09:27.619Z,14.97
2022-09-09T11:12:01.415Z,14.76
2022-09-09T11:14:41.626Z,14.83
2022-09-09T11:17:13.322Z,14.90
2022-09-09T11:19:42.637Z,14.75
2022-09-09T11:22:24.433Z,14.96
2022-09-09T11:24:56.560Z,14.94
2022-09-09T11:27:31.817Z,14.80
2022-09-09T11:30:02.237Z,15.71
2022-09-09T11:32:46.712Z,16.75
2022-09-09T11:35:51.523Z,18.26
2022-09-09T11:38:33.917Z,18.84
2022-09-09T11:41:05.411Z,18.34
2022-09-09T11:43:41.647Z,17.35
2022-09-09T11:46:15.933Z,17.14
2022-09-09T11:48:52.557Z,16.76
2022-09-09T11:51:20.223Z,16.44
2022-09-09T11:54:02.541Z,16.44
2022-09-09T11:56:43.354Z,17.12
2022-09-09T11:59:32.329Z,17.02
2022-09-09T12:02:04.327Z,16.78
2022-09-09T12:04:46.064Z,16.45
2022-09-09T12:07:28.986Z,16.35
2022-09-09T12:10:25.977Z,16.89
2022-09-09T12:12:53.973Z,18.17
2022-09-09T12:15:30.391Z,19.14
2022-09-09T12:18:03.937Z,19.73
2022-09-09T12:20:34.867Z,19.67
2022-09-09T12:23:32.292Z,19.58
2022-09-09T12:26:48.719Z,19.20
2022-09-09T12:29:23.372Z,19.95
2022-09-09T12:32:12.453Z,20.35
2022-09-09T12:34:52.214Z,19.37
2022-09-09T12:37:36.610Z,18.46
2022-09-09T12:40:28.738Z,17.47
2022-09-09T12:43:02.429Z,16.72
2022-09-09T12:45:32.679Z,16.18
2022-09-09T12:48:07.702Z,16.42
2022-09-09T12:50:45.072Z,16.33
2022-09-09T12:53:27.569Z,16.21
2022-09-09T12:55:59.965Z,15.86
2022-09-09T12:58:34.029Z,15.81
2022-09-09T13:01:05.965Z,15.62
2022-09-09T13:03:44.214Z,15.40
2022-09-09T13:06:15.480Z,15.14
2022-09-09T13:08:43.346Z,15.21
2022-09-09T13:11:18.465Z,15.02
2022-09-09T13:13:53.023Z,14.93
2022-09-09T13:16:26.777Z,14.82
2022-09-09T13:18:56.260Z,15.20
2022-09-09T13:21:39.102Z,15.20
2022-09-09T13:24:26.846Z,15.04
2022-09-09T13:27:05.816Z,14.85
2022-09-09T13:29:34.391Z,14.88
2022-09-09T13:32:07.485Z,15.09
2022-09-09T13:34:36.857Z,15.57
2022-09-09T13:37:24.788Z,16.11
2022-09-09T13:39:54.959Z,17.03
2022-09-09T13:42:36.047Z,17.46
2022-09-09T13:45:05.420Z,17.47
2022-09-09T13:47:38.017Z,16.68
2022-09-09T13:50:24.312Z,16.78
2022-09-09T13:52:54.325Z,16.79
2022-09-09T13:55:29.361Z,16.08
2022-09-09T13:58:03.522Z,15.43
2022-09-09T14:00:33.046Z,15.05
2022-09-09T14:03:05.401Z,15.02
2022-09-09T14:05:35.132Z,14.89
2022-09-09T14:08:08.233Z,14.95
2022-09-09T14:10:38.211Z,14.82
2022-09-09T14:13:05.654Z,14.61
2022-09-09T14:15:33.076Z,14.61
2022-09-09T14:18:00.683Z,14.30
2022-09-09T14:20:27.884Z,14.11
2022-09-09T14:22:55.375Z,13.95
2022-09-09T14:25:22.740Z,13.98
2022-09-09T14:27:52.465Z,13.85
2022-09-09T14:30:19.630Z,13.72
2022-09-09T14:32:47.889Z,13.41
2022-09-09T14:35:15.321Z,13.37
2022-09-09T14:37:42.499Z,13.39
2022-09-09T14:40:10.465Z,13.18
2022-09-09T14:42:38.056Z,13.10
2022-09-09T14:45:06.628Z,13.07
2022-09-09T14:47:34.389Z,12.99
2022-09-09T14:50:05.967Z,13.03
2022-09-09T14:52:35.861Z,12.92
2022-09-09T14:55:03.117Z,12.81
2022-09-09T14:57:30.370Z,12.75
2022-09-09T14:59:57.937Z,12.70
2022-09-09T15:02:27.756Z,12.80
2022-09-09T15:04:58.445Z,12.62
2022-09-09T15:07:27.920Z,12.57
2022-09-09T15:09:56.927Z,12.45
2022-09-09T15:12:25.136Z,12.48
2022-09-09T15:14:53.399Z,12.64
2022-09-09T15:17:23.276Z,12.54
2022-09-09T15:19:53.436Z,12.57
2022-09-09T15:22:20.750Z,12.41
2022-09-09T15:24:50.277Z,12.45
2022-09-09T15:27:17.611Z,12.41
2022-09-09T15:29:46.316Z,12.51
2022-09-09T15:32:13.894Z,12.26
2022-09-09T15:34:43.168Z,12.26
2022-09-09T15:37:16.605Z,12.43
2022-09-09T15:39:44.579Z,12.36
2022-09-09T15:42:12.092Z,12.36
2022-09-09T15:44:46.058Z,12.17
2022-09-09T15:47:23.324Z,12.16
2022-09-09T15:50:02.275Z,11.92
2022-09-09T15:52:41.558Z,11.88
2022-09-09T15:55:23.457Z,11.72
2022-09-09T15:57:53.403Z,11.70
2022-09-09T16:00:25.036Z,11.66
2022-09-09T16:02:57.248Z,11.67
2022-09-09T16:05:40.736Z,11.43
2022-09-09T16:08:10.477Z,11.45
2022-09-09T16:10:41.355Z,11.36
2022-09-09T16:13:21.258Z,11.48
2022-09-09T16:16:06.261Z,11.26
2022-09-09T16:18:49.752Z,11.26
2022-09-09T16:21:33.357Z,11.09
2022-09-09T16:24:21.805Z,11.01
2022-09-09T16:26:51.721Z,11.11
2022-09-09T16:29:34.640Z,10.88
2022-09-09T16:32:21.953Z,10.87
2022-09-09T16:35:06.930Z,10.94
2022-09-09T16:38:07.569Z,10.84
2022-09-09T16:40:45.752Z,10.97
2022-09-09T16:43:14.076Z,10.83
2022-09-09T16:45:51.133Z,10.81
2022-09-09T16:48:24.750Z,10.77
2022-09-09T16:51:02.011Z,10.83
2022-09-09T16:53:36.768Z,10.77
2022-09-09T16:56:26.944Z,10.77
2022-09-09T17:03:16.848Z,10.56
2022-09-09T17:05:54.670Z,10.60
2022-09-09T17:08:39.293Z,10.41
2022-09-09T17:11:14.762Z,10.56
2022-09-09T17:13:44.235Z,10.56
2022-09-09T17:16:15.911Z,10.31
2022-09-09T17:18:47.242Z,10.34
2022-09-09T17:21:18.083Z,10.21
2022-09-09T17:23:46.334Z,10.30
2022-09-09T17:26:16.068Z,10.28
2022-09-09T17:28:44.371Z,10.23
2022-09-09T17:31:13.699Z,10.09
2022-09-09T17:33:44.922Z,10.09
2022-09-09T17:36:16.256Z,10.05
2022-09-09T17:38:43.866Z,10.04
2022-09-09T17:41:21.991Z,9.87
2022-09-09T17:43:50.623Z,9.98
2022-09-09T17:46:23.658Z,9.82
2022-09-09T17:48:57.064Z,9.75
2022-09-09T17:51:27.280Z,9.58
2022-09-09T17:53:56.118Z,9.61
2022-09-09T17:56:24.761Z,9.78
2022-09-09T17:58:54.043Z,9.55
2022-09-09T18:01:23.876Z,9.76
2022-09-09T18:03:52.343Z,9.57
2022-09-09T18:06:27.797Z,9.68
2022-09-09T18:09:00.706Z,9.48
2022-09-09T18:11:30.467Z,9.47
2022-09-09T18:14:04.447Z,9.42
2022-09-09T18:16:36.994Z,9.41
2022-09-09T18:19:08.434Z,9.25
2022-09-09T18:21:36.109Z,9.30
2022-09-09T18:24:06.784Z,9.41
2022-09-09T18:26:35.900Z,9.35
2022-09-09T18:29:08.364Z,9.24
2022-09-09T18:31:35.874Z,9.18
2022-09-09T18:34:04.456Z,9.20
2022-09-09T18:36:35.073Z,9.15
2022-09-09T18:39:04.807Z,9.16
2022-09-09T18:41:37.542Z,8.96
2022-09-09T18:44:13.834Z,9.01
2022-09-09T18:46:41.460Z,9.05
2022-09-09T18:49:11.784Z,9.14
2022-09-09T18:51:41.440Z,9.02
2022-09-09T18:54:19.951Z,8.92
2022-09-09T18:56:47.931Z,9.02
2022-09-09T18:59:24.277Z,8.89
2022-09-09T19:02:00.654Z,8.74
2022-09-09T19:05:00.250Z,8.66
2022-09-09T19:07:32.569Z,8.70
2022-09-09T19:10:03.017Z,8.67
2022-09-09T19:12:35.021Z,8.69
2022-09-09T19:15:07.563Z,8.77
2022-09-09T19:17:59.286Z,8.56
2022-09-09T19:20:50.932Z,8.50
2022-09-09T19:23:21.350Z,8.54
2022-09-09T19:25:58.492Z,8.45
2022-09-09T19:28:36.146Z,8.41
2022-09-09T19:31:08.078Z,8.50
2022-09-09T19:33:38.599Z,8.53
2022-09-09T19:36:11.050Z,8.42
2022-09-09T19:38:39.354Z,8.40
2022-09-09T19:41:09.987Z,8.44
2022-09-09T19:43:37.851Z,8.31
2022-09-09T19:46:09.409Z,8.43
2022-09-09T19:48:44.009Z,8.42
2022-09-09T19:51:15.001Z,8.24
2022-09-09T19:53:55.713Z,8.27
2022-09-09T19:56:28.535Z,8.16
2022-09-09T19:59:48.318Z,8.39
2022-09-09T20:02:16.096Z,8.25
2022-09-09T20:04:49.192Z,8.24
2022-09-09T20:07:17.617Z,8.06
2022-09-09T20:09:45.169Z,8.04
2022-09-09T20:12:12.678Z,8.01
2022-09-09T20:14:40.502Z,7.93
2022-09-09T20:17:08.584Z,7.98
2022-09-09T20:19:38.989Z,8.13
2022-09-09T20:22:06.486Z,7.88
2022-09-09T20:24:34.108Z,7.97
2022-09-09T20:27:01.513Z,7.95
2022-09-09T20:29:33.787Z,7.76
2022-09-09T20:32:02.208Z,7.83
2022-09-09T20:34:30.232Z,7.79
2022-09-09T20:37:02.789Z,7.79
2022-09-09T20:39:32.744Z,7.65
2022-09-09T20:42:00.734Z,7.76
2022-09-09T20:44:29.982Z,7.64
2022-09-09T20:47:02.903Z,7.71
2022-09-09T20:49:31.745Z,7.66
2022-09-09T20:51:59.340Z,7.59
2022-09-09T20:54:30.775Z,7.49
2022-09-09T20:57:01.067Z,7.58
2022-09-09T20:59:35.002Z,7.45
2022-09-09T21:02:02.647Z,7.59
2022-09-09T21:04:30.114Z,8.09
2022-09-09T21:06:57.384Z,8.61
2022-09-09T21:09:26.046Z,9.19
2022-09-09T21:11:53.913Z,9.77
2022-09-09T21:14:23.980Z,10.11
2022-09-09T21:16:51.951Z,9.72
2022-09-09T21:19:22.632Z,9.24
2022-09-09T21:21:49.781Z,8.74
2022-09-09T21:24:17.558Z,8.25
2022-09-09T21:26:45.089Z,8.16
2022-09-09T21:29:14.698Z,7.97
2022-09-09T21:31:43.599Z,7.70
2022-09-09T21:34:13.604Z,7.67
2022-09-09T21:36:41.304Z,7.47
2022-09-09T21:39:11.468Z,7.37
2022-09-09T21:41:42.213Z,7.28
2022-09-09T21:44:21.843Z,7.20
2022-09-09T21:47:31.806Z,7.37
2022-09-09T21:50:30.010Z,7.63
2022-09-09T21:53:15.299Z,7.47
2022-09-09T21:55:47.518Z,7.27
2022-09-09T21:58:35.905Z,7.22
2022-09-09T22:01:30.839Z,7.20
2022-09-09T22:04:14.996Z,7.28
2022-09-09T22:07:00.060Z,7.12
2022-09-09T22:10:18.129Z,7.11
2022-09-09T22:13:08.535Z,7.01
2022-09-09T22:15:51.166Z,6.93
2022-09-09T22:18:22.309Z,6.95
2022-09-09T22:20:52.822Z,7.05
2022-09-09T22:23:26.952Z,6.97
2022-09-09T22:26:11.965Z,7.07
2022-09-09T22:29:02.082Z,7.10
2022-09-09T22:31:38.831Z,7.10
2022-09-09T22:34:12.780Z,6.97
2022-09-09T22:36:46.430Z,7.21
2022-09-09T22:39:17.559Z,7.17
2022-09-09T22:42:03.458Z,7.15
2022-09-09T22:44:32.203Z,6.92
2022-09-09T22:47:12.325Z,6.83
2022-09-09T22:49:53.013Z,6.81
2022-09-09T22:52:25.657Z,6.86
2022-09-09T22:54:58.318Z,6.81
2022-09-09T22:57:30.126Z,6.72
2022-09-09T23:00:02.926Z,6.83
2022-09-09T23:02:40.479Z,6.80
2022-09-09T23:05:13.060Z,6.61
2022-09-09T23:08:05.649Z,6.87
2022-09-09T23:10:44.918Z,6.68
2022-09-09T23:13:18.510Z,6.83
2022-09-09T23:15:47.103Z,6.83
2022-09-09T23:18:19.307Z,6.81
2022-09-09T23:21:06.747Z,6.73
2022-09-09T23:23:50.571Z,6.46
2022-09-09T23:26:32.367Z,6.44
2022-09-09T23:29:02.700Z,6.43
2022-09-09T23:31:43.152Z,6.45
2022-09-09T23:34:17.783Z,6.44
2022-09-09T23:36:47.495Z,6.39
2022-09-09T23:39:17.666Z,6.47
2022-09-09T23:42:04.430Z,6.28
2022-09-09T23:44:45.674Z,6.53
2022-09-09T23:47:20.851Z,6.30
2022-09-09T23:50:04.462Z,6.39
2022-09-09T23:52:41.543Z,6.27
2022-09-09T23:55:16.379Z,6.47
2022-09-09T23:57:49.883Z,6.30
